sensor_id;sensor_type;location;lat;lon;timestamp;pressure;altitude;pressure_sealevel;temperature
14851;BMP180;7517;48.400;11.770;2023-11-21T00:00:09;95884.00;;;11.00
14851;BMP180;7517;48.400;11.770;2023-11-21T00:02:38;95874.00;;;11.00
14851;BMP180;7517;48.400;11.770;2023-11-21T00:05:07;95875.00;;;11.00
14851;BMP180;7517;48.400;11.770;2023-11-21T00:07:35;95865.00;;;11.00
14851;BMP180;7517;48.400;11.770;2023-11-21T00:10:03;95875.00;;;11.00
14851;BMP180;7517;48.400;11.770;2023-11-21T00:12:34;95870.00;;;11.00
14851;BMP180;7517;48.400;11.770;2023-11-21T00:15:03;95870.00;;;11.00
14851;BMP180;7517;48.400;11.770;2023-11-21T00:17:31;95869.00;;;11.00
14851;BMP180;7517;48.400;11.770;2023-11-21T00:19:58;95867.00;;;11.00
14851;BMP180;7517;48.400;11.770;2023-11-21T00:22:26;95862.00;;;11.00
14851;BMP180;7517;48.400;11.770;2023-11-21T00:24:53;95864.00;;;11.00
14851;BMP180;7517;48.400;11.770;2023-11-21T00:27:21;95862.00;;;11.00
14851;BMP180;7517;48.400;11.770;2023-11-21T00:29:49;95862.00;;;11.00
14851;BMP180;7517;48.400;11.770;2023-11-21T00:32:16;95860.00;;;11.00
14851;BMP180;7517;48.400;11.770;2023-11-21T00:34:44;95859.00;;;11.00
14851;BMP180;7517;48.400;11.770;2023-11-21T00:37:11;95859.00;;;11.00
14851;BMP180;7517;48.400;11.770;2023-11-21T00:39:38;95857.00;;;11.00
14851;BMP180;7517;48.400;11.770;2023-11-21T00:42:06;95859.00;;;11.00
14851;BMP180;7517;48.400;11.770;2023-11-21T00:44:34;95859.00;;;11.00
14851;BMP180;7517;48.400;11.770;2023-11-21T00:47:06;95859.00;;;11.10
14851;BMP180;7517;48.400;11.770;2023-11-21T00:49:33;95859.00;;;11.10
14851;BMP180;7517;48.400;11.770;2023-11-21T00:52:01;95861.00;;;11.10
14851;BMP180;7517;48.400;11.770;2023-11-21T00:54:28;95862.00;;;11.10
14851;BMP180;7517;48.400;11.770;2023-11-21T00:56:56;95865.00;;;11.10
14851;BMP180;7517;48.400;11.770;2023-11-21T00:59:23;95868.00;;;11.10
14851;BMP180;7517;48.400;11.770;2023-11-21T01:01:50;95854.00;;;11.20
14851;BMP180;7517;48.400;11.770;2023-11-21T01:04:20;95856.00;;;11.20
14851;BMP180;7517;48.400;11.770;2023-11-21T01:06:48;95850.00;;;11.20
14851;BMP180;7517;48.400;11.770;2023-11-21T01:09:15;95847.00;;;11.30
14851;BMP180;7517;48.400;11.770;2023-11-21T01:11:44;95845.00;;;11.30
14851;BMP180;7517;48.400;11.770;2023-11-21T01:14:12;95834.00;;;11.30
14851;BMP180;7517;48.400;11.770;2023-11-21T01:16:39;95836.00;;;11.30
14851;BMP180;7517;48.400;11.770;2023-11-21T01:19:06;95832.00;;;11.40
14851;BMP180;7517;48.400;11.770;2023-11-21T01:21:36;95844.00;;;11.40
14851;BMP180;7517;48.400;11.770;2023-11-21T01:24:05;95838.00;;;11.40
14851;BMP180;7517;48.400;11.770;2023-11-21T01:26:33;95850.00;;;11.40
14851;BMP180;7517;48.400;11.770;2023-11-21T01:29:00;95851.00;;;11.40
14851;BMP180;7517;48.400;11.770;2023-11-21T01:31:28;95846.00;;;11.40
14851;BMP180;7517;48.400;11.770;2023-11-21T01:33:55;95846.00;;;11.40
14851;BMP180;7517;48.400;11.770;2023-11-21T01:36:30;95852.00;;;11.40
14851;BMP180;7517;48.400;11.770;2023-11-21T01:38:59;95855.00;;;11.40
14851;BMP180;7517;48.400;11.770;2023-11-21T01:41:27;95849.00;;;11.40
14851;BMP180;7517;48.400;11.770;2023-11-21T01:43:56;95850.00;;;11.40
14851;BMP180;7517;48.400;11.770;2023-11-21T01:46:24;95854.00;;;11.40
14851;BMP180;7517;48.400;11.770;2023-11-21T01:48:53;95853.00;;;11.40
14851;BMP180;7517;48.400;11.770;2023-11-21T01:51:21;95855.00;;;11.40
14851;BMP180;7517;48.400;11.770;2023-11-21T01:53:49;95853.00;;;11.40
14851;BMP180;7517;48.400;11.770;2023-11-21T01:56:19;95856.00;;;11.40
14851;BMP180;7517;48.400;11.770;2023-11-21T01:58:47;95860.00;;;11.40
14851;BMP180;7517;48.400;11.770;2023-11-21T02:01:14;95856.00;;;11.40
14851;BMP180;7517;48.400;11.770;2023-11-21T02:03:41;95844.00;;;11.40
14851;BMP180;7517;48.400;11.770;2023-11-21T02:06:10;95847.00;;;11.40
14851;BMP180;7517;48.400;11.770;2023-11-21T02:08:37;95855.00;;;11.40
14851;BMP180;7517;48.400;11.770;2023-11-21T02:11:05;95849.00;;;11.50
14851;BMP180;7517;48.400;11.770;2023-11-21T02:13:35;95853.00;;;11.50
14851;BMP180;7517;48.400;11.770;2023-11-21T02:16:03;95846.00;;;11.50
14851;BMP180;7517;48.400;11.770;2023-11-21T02:18:31;95848.00;;;11.50
14851;BMP180;7517;48.400;11.770;2023-11-21T02:20:58;95845.00;;;11.50
14851;BMP180;7517;48.400;11.770;2023-11-21T02:23:30;95848.00;;;11.50
14851;BMP180;7517;48.400;11.770;2023-11-21T02:25:57;95845.00;;;11.50
14851;BMP180;7517;48.400;11.770;2023-11-21T02:28:25;95840.00;;;11.50
14851;BMP180;7517;48.400;11.770;2023-11-21T02:30:52;95839.00;;;11.50
14851;BMP180;7517;48.400;11.770;2023-11-21T02:33:24;95841.00;;;11.50
14851;BMP180;7517;48.400;11.770;2023-11-21T02:35:52;95840.00;;;11.50
14851;BMP180;7517;48.400;11.770;2023-11-21T02:38:21;95842.00;;;11.50
14851;BMP180;7517;48.400;11.770;2023-11-21T02:40:50;95835.00;;;11.50
14851;BMP180;7517;48.400;11.770;2023-11-21T02:43:17;95835.00;;;11.50
14851;BMP180;7517;48.400;11.770;2023-11-21T02:45:45;95834.00;;;11.50
14851;BMP180;7517;48.400;11.770;2023-11-21T02:48:12;95846.00;;;11.50
14851;BMP180;7517;48.400;11.770;2023-11-21T02:50:39;95834.00;;;11.50
14851;BMP180;7517;48.400;11.770;2023-11-21T02:53:10;95834.00;;;11.50
14851;BMP180;7517;48.400;11.770;2023-11-21T02:55:38;95837.00;;;11.40
14851;BMP180;7517;48.400;11.770;2023-11-21T02:58:07;95837.00;;;11.40
14851;BMP180;7517;48.400;11.770;2023-11-21T03:00:34;95839.00;;;11.40
14851;BMP180;7517;48.400;11.770;2023-11-21T03:03:02;95829.00;;;11.40
14851;BMP180;7517;48.400;11.770;2023-11-21T03:05:29;95842.00;;;11.40
14851;BMP180;7517;48.400;11.770;2023-11-21T03:07:57;95838.00;;;11.40
14851;BMP180;7517;48.400;11.770;2023-11-21T03:10:26;95835.00;;;11.40
14851;BMP180;7517;48.400;11.770;2023-11-21T03:12:53;95848.00;;;11.40
14851;BMP180;7517;48.400;11.770;2023-11-21T03:15:22;95832.00;;;11.40
14851;BMP180;7517;48.400;11.770;2023-11-21T03:17:50;95839.00;;;11.40
14851;BMP180;7517;48.400;11.770;2023-11-21T03:20:18;95833.00;;;11.40
14851;BMP180;7517;48.400;11.770;2023-11-21T03:22:45;95830.00;;;11.40
14851;BMP180;7517;48.400;11.770;2023-11-21T03:25:13;95833.00;;;11.40
14851;BMP180;7517;48.400;11.770;2023-11-21T03:27:42;95830.00;;;11.40
14851;BMP180;7517;48.400;11.770;2023-11-21T03:30:11;95836.00;;;11.40
14851;BMP180;7517;48.400;11.770;2023-11-21T03:32:40;95839.00;;;11.50
14851;BMP180;7517;48.400;11.770;2023-11-21T03:35:08;95836.00;;;11.50
14851;BMP180;7517;48.400;11.770;2023-11-21T03:37:35;95834.00;;;11.50
14851;BMP180;7517;48.400;11.770;2023-11-21T03:40:06;95845.00;;;11.50
14851;BMP180;7517;48.400;11.770;2023-11-21T03:42:34;95829.00;;;11.50
14851;BMP180;7517;48.400;11.770;2023-11-21T03:45:02;95829.00;;;11.50
14851;BMP180;7517;48.400;11.770;2023-11-21T03:47:32;95829.00;;;11.50
14851;BMP180;7517;48.400;11.770;2023-11-21T03:50:01;95827.00;;;11.50
14851;BMP180;7517;48.400;11.770;2023-11-21T03:52:29;95819.00;;;11.50
14851;BMP180;7517;48.400;11.770;2023-11-21T03:54:56;95821.00;;;11.50
14851;BMP180;7517;48.400;11.770;2023-11-21T03:57:23;95822.00;;;11.50
14851;BMP180;7517;48.400;11.770;2023-11-21T03:59:51;95821.00;;;11.50
14851;BMP180;7517;48.400;11.770;2023-11-21T04:02:18;95817.00;;;11.50
14851;BMP180;7517;48.400;11.770;2023-11-21T04:04:45;95821.00;;;11.50
14851;BMP180;7517;48.400;11.770;2023-11-21T04:07:14;95822.00;;;11.40
14851;BMP180;7517;48.400;11.770;2023-11-21T04:09:42;95823.00;;;11.40
14851;BMP180;7517;48.400;11.770;2023-11-21T04:12:09;95825.00;;;11.40
14851;BMP180;7517;48.400;11.770;2023-11-21T04:14:37;95827.00;;;11.40
14851;BMP180;7517;48.400;11.770;2023-11-21T04:17:04;95818.00;;;11.30
14851;BMP180;7517;48.400;11.770;2023-11-21T04:19:32;95809.00;;;11.30
14851;BMP180;7517;48.400;11.770;2023-11-21T04:21:59;95811.00;;;11.30
14851;BMP180;7517;48.400;11.770;2023-11-21T04:24:28;95819.00;;;11.30
14851;BMP180;7517;48.400;11.770;2023-11-21T04:26:55;95822.00;;;11.30
14851;BMP180;7517;48.400;11.770;2023-11-21T04:29:22;95823.00;;;11.20
14851;BMP180;7517;48.400;11.770;2023-11-21T04:31:49;95828.00;;;11.20
14851;BMP180;7517;48.400;11.770;2023-11-21T04:34:16;95822.00;;;11.20
14851;BMP180;7517;48.400;11.770;2023-11-21T04:36:44;95820.00;;;11.20
14851;BMP180;7517;48.400;11.770;2023-11-21T04:39:12;95821.00;;;11.10
14851;BMP180;7517;48.400;11.770;2023-11-21T04:41:40;95829.00;;;11.10
14851;BMP180;7517;48.400;11.770;2023-11-21T04:44:08;95833.00;;;11.10
14851;BMP180;7517;48.400;11.770;2023-11-21T04:46:36;95829.00;;;11.10
14851;BMP180;7517;48.400;11.770;2023-11-21T04:49:03;95832.00;;;11.10
14851;BMP180;7517;48.400;11.770;2023-11-21T04:51:30;95836.00;;;11.10
14851;BMP180;7517;48.400;11.770;2023-11-21T04:53:58;95836.00;;;11.10
14851;BMP180;7517;48.400;11.770;2023-11-21T04:56:25;95836.00;;;11.10
14851;BMP180;7517;48.400;11.770;2023-11-21T04:58:55;95838.00;;;11.10
14851;BMP180;7517;48.400;11.770;2023-11-21T05:01:22;95838.00;;;11.10
14851;BMP180;7517;48.400;11.770;2023-11-21T05:03:52;95835.00;;;11.10
14851;BMP180;7517;48.400;11.770;2023-11-21T05:06:19;95841.00;;;11.10
14851;BMP180;7517;48.400;11.770;2023-11-21T05:08:46;95836.00;;;11.10
14851;BMP180;7517;48.400;11.770;2023-11-21T05:11:24;95840.00;;;11.10
14851;BMP180;7517;48.400;11.770;2023-11-21T05:13:51;95840.00;;;11.10
14851;BMP180;7517;48.400;11.770;2023-11-21T05:16:20;95837.00;;;11.10
14851;BMP180;7517;48.400;11.770;2023-11-21T05:18:47;95842.00;;;11.10
14851;BMP180;7517;48.400;11.770;2023-11-21T05:21:16;95843.00;;;11.10
14851;BMP180;7517;48.400;11.770;2023-11-21T05:23:49;95841.00;;;11.10
14851;BMP180;7517;48.400;11.770;2023-11-21T05:26:16;95844.00;;;11.10
14851;BMP180;7517;48.400;11.770;2023-11-21T05:28:46;95833.00;;;11.00
14851;BMP180;7517;48.400;11.770;2023-11-21T05:31:14;95843.00;;;11.00
14851;BMP180;7517;48.400;11.770;2023-11-21T05:33:42;95851.00;;;11.00
14851;BMP180;7517;48.400;11.770;2023-11-21T05:36:10;95846.00;;;11.00
14851;BMP180;7517;48.400;11.770;2023-11-21T05:38:37;95854.00;;;11.00
14851;BMP180;7517;48.400;11.770;2023-11-21T05:41:05;95850.00;;;10.90
14851;BMP180;7517;48.400;11.770;2023-11-21T05:43:32;95847.00;;;10.90
14851;BMP180;7517;48.400;11.770;2023-11-21T05:46:01;95851.00;;;10.90
14851;BMP180;7517;48.400;11.770;2023-11-21T05:48:29;95845.00;;;10.90
14851;BMP180;7517;48.400;11.770;2023-11-21T05:50:58;95846.00;;;10.80
14851;BMP180;7517;48.400;11.770;2023-11-21T05:53:27;95842.00;;;10.80
14851;BMP180;7517;48.400;11.770;2023-11-21T05:55:56;95842.00;;;10.70
14851;BMP180;7517;48.400;11.770;2023-11-21T05:58:23;95854.00;;;10.70
14851;BMP180;7517;48.400;11.770;2023-11-21T06:00:50;95848.00;;;10.70
14851;BMP180;7517;48.400;11.770;2023-11-21T06:03:18;95845.00;;;10.60
14851;BMP180;7517;48.400;11.770;2023-11-21T06:05:46;95841.00;;;10.60
14851;BMP180;7517;48.400;11.770;2023-11-21T06:08:14;95846.00;;;10.50
14851;BMP180;7517;48.400;11.770;2023-11-21T06:10:43;95845.00;;;10.50
14851;BMP180;7517;48.400;11.770;2023-11-21T06:13:10;95851.00;;;10.40
14851;BMP180;7517;48.400;11.770;2023-11-21T06:15:38;95856.00;;;10.40
14851;BMP180;7517;48.400;11.770;2023-11-21T06:18:05;95862.00;;;10.30
14851;BMP180;7517;48.400;11.770;2023-11-21T06:20:35;95858.00;;;10.30
14851;BMP180;7517;48.400;11.770;2023-11-21T06:23:05;95871.00;;;10.20
14851;BMP180;7517;48.400;11.770;2023-11-21T06:25:34;95871.00;;;10.20
14851;BMP180;7517;48.400;11.770;2023-11-21T06:28:02;95875.00;;;10.20
14851;BMP180;7517;48.400;11.770;2023-11-21T06:30:30;95879.00;;;10.10
14851;BMP180;7517;48.400;11.770;2023-11-21T06:32:59;95874.00;;;10.10
14851;BMP180;7517;48.400;11.770;2023-11-21T06:35:26;95877.00;;;10.10
14851;BMP180;7517;48.400;11.770;2023-11-21T06:37:56;95880.00;;;10.00
14851;BMP180;7517;48.400;11.770;2023-11-21T06:40:23;95886.00;;;10.00
14851;BMP180;7517;48.400;11.770;2023-11-21T06:42:52;95881.00;;;10.00
14851;BMP180;7517;48.400;11.770;2023-11-21T06:45:19;95889.00;;;10.00
14851;BMP180;7517;48.400;11.770;2023-11-21T06:47:47;95894.00;;;10.00
14851;BMP180;7517;48.400;11.770;2023-11-21T06:50:15;95892.00;;;10.00
14851;BMP180;7517;48.400;11.770;2023-11-21T06:52:42;95892.00;;;10.00
14851;BMP180;7517;48.400;11.770;2023-11-21T06:55:10;95897.00;;;9.90
14851;BMP180;7517;48.400;11.770;2023-11-21T06:57:37;95902.00;;;9.90
14851;BMP180;7517;48.400;11.770;2023-11-21T07:00:10;95916.00;;;9.90
14851;BMP180;7517;48.400;11.770;2023-11-21T07:02:38;95914.00;;;9.90
14851;BMP180;7517;48.400;11.770;2023-11-21T07:05:05;95909.00;;;9.90
14851;BMP180;7517;48.400;11.770;2023-11-21T07:07:33;95909.00;;;9.90
14851;BMP180;7517;48.400;11.770;2023-11-21T07:10:03;95914.00;;;9.90
14851;BMP180;7517;48.400;11.770;2023-11-21T07:12:31;95916.00;;;9.90
14851;BMP180;7517;48.400;11.770;2023-11-21T07:14:58;95917.00;;;9.90
14851;BMP180;7517;48.400;11.770;2023-11-21T07:17:27;95913.00;;;10.00
14851;BMP180;7517;48.400;11.770;2023-11-21T07:19:54;95920.00;;;10.00
14851;BMP180;7517;48.400;11.770;2023-11-21T07:22:22;95922.00;;;10.10
14851;BMP180;7517;48.400;11.770;2023-11-21T07:24:49;95930.00;;;10.10
14851;BMP180;7517;48.400;11.770;2023-11-21T07:27:18;95931.00;;;10.20
14851;BMP180;7517;48.400;11.770;2023-11-21T07:29:45;95935.00;;;10.20
14851;BMP180;7517;48.400;11.770;2023-11-21T07:32:14;95933.00;;;10.30
14851;BMP180;7517;48.400;11.770;2023-11-21T07:34:43;95933.00;;;10.30
14851;BMP180;7517;48.400;11.770;2023-11-21T07:37:10;95935.00;;;10.40
14851;BMP180;7517;48.400;11.770;2023-11-21T07:39:37;95931.00;;;10.50
14851;BMP180;7517;48.400;11.770;2023-11-21T07:42:08;95936.00;;;10.50
14851;BMP180;7517;48.400;11.770;2023-11-21T07:44:36;95940.00;;;10.60
14851;BMP180;7517;48.400;11.770;2023-11-21T07:47:04;95946.00;;;10.70
14851;BMP180;7517;48.400;11.770;2023-11-21T07:49:32;95944.00;;;10.80
14851;BMP180;7517;48.400;11.770;2023-11-21T07:52:01;95946.00;;;10.90
14851;BMP180;7517;48.400;11.770;2023-11-21T07:54:29;95950.00;;;10.90
14851;BMP180;7517;48.400;11.770;2023-11-21T07:56:56;95941.00;;;11.00
14851;BMP180;7517;48.400;11.770;2023-11-21T07:59:23;95949.00;;;11.10
14851;BMP180;7517;48.400;11.770;2023-11-21T08:01:51;95940.00;;;11.20
14851;BMP180;7517;48.400;11.770;2023-11-21T08:04:18;95947.00;;;11.30
14851;BMP180;7517;48.400;11.770;2023-11-21T08:06:45;95942.00;;;11.30
14851;BMP180;7517;48.400;11.770;2023-11-21T08:09:15;95944.00;;;11.40
14851;BMP180;7517;48.400;11.770;2023-11-21T08:11:46;95950.00;;;11.40
14851;BMP180;7517;48.400;11.770;2023-11-21T08:14:13;95950.00;;;11.50
14851;BMP180;7517;48.400;11.770;2023-11-21T08:16:41;95949.00;;;11.60
14851;BMP180;7517;48.400;11.770;2023-11-21T08:19:08;95952.00;;;11.70
14851;BMP180;7517;48.400;11.770;2023-11-21T08:21:35;95948.00;;;11.70
14851;BMP180;7517;48.400;11.770;2023-11-21T08:24:04;95945.00;;;11.80
14851;BMP180;7517;48.400;11.770;2023-11-21T08:26:33;95948.00;;;11.80
14851;BMP180;7517;48.400;11.770;2023-11-21T08:29:00;95947.00;;;11.90
14851;BMP180;7517;48.400;11.770;2023-11-21T08:31:28;95943.00;;;11.90
14851;BMP180;7517;48.400;11.770;2023-11-21T08:33:55;95944.00;;;12.00
14851;BMP180;7517;48.400;11.770;2023-11-21T08:36:23;95950.00;;;12.00
14851;BMP180;7517;48.400;11.770;2023-11-21T08:38:51;95947.00;;;12.10
14851;BMP180;7517;48.400;11.770;2023-11-21T08:41:19;95952.00;;;12.10
14851;BMP180;7517;48.400;11.770;2023-11-21T08:43:50;95952.00;;;12.10
14851;BMP180;7517;48.400;11.770;2023-11-21T08:46:18;95954.00;;;12.20
14851;BMP180;7517;48.400;11.770;2023-11-21T08:48:45;95960.00;;;12.20
14851;BMP180;7517;48.400;11.770;2023-11-21T08:51:16;95962.00;;;12.20
14851;BMP180;7517;48.400;11.770;2023-11-21T08:53:43;95960.00;;;12.30
14851;BMP180;7517;48.400;11.770;2023-11-21T08:56:13;95963.00;;;12.30
14851;BMP180;7517;48.400;11.770;2023-11-21T08:58:41;95964.00;;;12.30
14851;BMP180;7517;48.400;11.770;2023-11-21T09:01:09;95964.00;;;12.40
14851;BMP180;7517;48.400;11.770;2023-11-21T09:03:38;95962.00;;;12.40
14851;BMP180;7517;48.400;11.770;2023-11-21T09:06:06;95964.00;;;12.50
14851;BMP180;7517;48.400;11.770;2023-11-21T09:08:35;95976.00;;;12.60
14851;BMP180;7517;48.400;11.770;2023-11-21T09:11:03;95983.00;;;12.60
14851;BMP180;7517;48.400;11.770;2023-11-21T09:13:31;95981.00;;;12.70
14851;BMP180;7517;48.400;11.770;2023-11-21T09:15:58;95987.00;;;12.80
14851;BMP180;7517;48.400;11.770;2023-11-21T09:18:27;95985.00;;;12.90
14851;BMP180;7517;48.400;11.770;2023-11-21T09:20:54;95992.00;;;13.00
14851;BMP180;7517;48.400;11.770;2023-11-21T09:23:22;95995.00;;;13.10
14851;BMP180;7517;48.400;11.770;2023-11-21T09:25:49;95988.00;;;13.20
14851;BMP180;7517;48.400;11.770;2023-11-21T09:28:17;95990.00;;;13.30
14851;BMP180;7517;48.400;11.770;2023-11-21T09:30:46;96000.00;;;13.40
14851;BMP180;7517;48.400;11.770;2023-11-21T09:33:15;95993.00;;;13.50
14851;BMP180;7517;48.400;11.770;2023-11-21T09:35:43;95993.00;;;13.60
14851;BMP180;7517;48.400;11.770;2023-11-21T09:38:11;95998.00;;;13.60
14851;BMP180;7517;48.400;11.770;2023-11-21T09:40:38;95997.00;;;13.60
14851;BMP180;7517;48.400;11.770;2023-11-21T09:43:08;96004.00;;;13.70
14851;BMP180;7517;48.400;11.770;2023-11-21T09:45:45;96000.00;;;13.70
14851;BMP180;7517;48.400;11.770;2023-11-21T09:48:14;96001.00;;;13.70
14851;BMP180;7517;48.400;11.770;2023-11-21T09:50:43;96000.00;;;13.70
14851;BMP180;7517;48.400;11.770;2023-11-21T09:53:18;95998.00;;;13.70
14851;BMP180;7517;48.400;11.770;2023-11-21T09:55:48;96000.00;;;13.80
14851;BMP180;7517;48.400;11.770;2023-11-21T09:58:19;95988.00;;;13.80
14851;BMP180;7517;48.400;11.770;2023-11-21T10:00:48;95989.00;;;13.80
14851;BMP180;7517;48.400;11.770;2023-11-21T10:03:16;95995.00;;;13.80
14851;BMP180;7517;48.400;11.770;2023-11-21T10:05:45;95995.00;;;13.80
14851;BMP180;7517;48.400;11.770;2023-11-21T10:08:15;95997.00;;;13.80
14851;BMP180;7517;48.400;11.770;2023-11-21T10:10:45;95996.00;;;13.70
14851;BMP180;7517;48.400;11.770;2023-11-21T10:13:14;96001.00;;;13.70
14851;BMP180;7517;48.400;11.770;2023-11-21T10:15:44;95997.00;;;13.70
14851;BMP180;7517;48.400;11.770;2023-11-21T10:18:16;95998.00;;;13.70
14851;BMP180;7517;48.400;11.770;2023-11-21T10:20:45;96003.00;;;13.80
14851;BMP180;7517;48.400;11.770;2023-11-21T10:23:19;96002.00;;;13.80
14851;BMP180;7517;48.400;11.770;2023-11-21T10:25:47;95998.00;;;13.80
14851;BMP180;7517;48.400;11.770;2023-11-21T10:28:15;95997.00;;;13.80
14851;BMP180;7517;48.400;11.770;2023-11-21T10:30:42;96002.00;;;13.90
14851;BMP180;7517;48.400;11.770;2023-11-21T10:33:10;95999.00;;;13.90
14851;BMP180;7517;48.400;11.770;2023-11-21T10:35:45;95997.00;;;13.90
14851;BMP180;7517;48.400;11.770;2023-11-21T10:38:16;95999.00;;;14.00
14851;BMP180;7517;48.400;11.770;2023-11-21T10:40:44;96000.00;;;14.00
14851;BMP180;7517;48.400;11.770;2023-11-21T10:43:13;96002.00;;;14.00
14851;BMP180;7517;48.400;11.770;2023-11-21T10:45:41;96010.00;;;14.00
14851;BMP180;7517;48.400;11.770;2023-11-21T10:48:10;96002.00;;;14.00
14851;BMP180;7517;48.400;11.770;2023-11-21T10:50:41;96014.00;;;14.10
14851;BMP180;7517;48.400;11.770;2023-11-21T10:53:10;96021.00;;;14.10
14851;BMP180;7517;48.400;11.770;2023-11-21T10:55:39;96018.00;;;14.10
14851;BMP180;7517;48.400;11.770;2023-11-21T10:58:07;96012.00;;;14.20
14851;BMP180;7517;48.400;11.770;2023-11-21T11:00:38;96014.00;;;14.20
14851;BMP180;7517;48.400;11.770;2023-11-21T11:03:07;96010.00;;;14.20
14851;BMP180;7517;48.400;11.770;2023-11-21T11:05:40;96009.00;;;14.20
14851;BMP180;7517;48.400;11.770;2023-11-21T11:08:12;96000.00;;;14.20
14851;BMP180;7517;48.400;11.770;2023-11-21T11:10:45;96001.00;;;14.20
14851;BMP180;7517;48.400;11.770;2023-11-21T11:13:14;96002.00;;;14.20
14851;BMP180;7517;48.400;11.770;2023-11-21T11:15:42;96002.00;;;14.20
14851;BMP180;7517;48.400;11.770;2023-11-21T11:18:12;96003.00;;;14.20
14851;BMP180;7517;48.400;11.770;2023-11-21T11:20:42;96006.00;;;14.30
14851;BMP180;7517;48.400;11.770;2023-11-21T11:23:33;95999.00;;;14.30
14851;BMP180;7517;48.400;11.770;2023-11-21T11:26:23;96000.00;;;14.30
14851;BMP180;7517;48.400;11.770;2023-11-21T11:29:05;95998.00;;;14.30
14851;BMP180;7517;48.400;11.770;2023-11-21T11:31:50;95985.00;;;14.40
14851;BMP180;7517;48.400;11.770;2023-11-21T11:34:32;95996.00;;;14.40
14851;BMP180;7517;48.400;11.770;2023-11-21T11:37:03;95991.00;;;14.50
14851;BMP180;7517;48.400;11.770;2023-11-21T11:39:38;95995.00;;;14.50
14851;BMP180;7517;48.400;11.770;2023-11-21T11:42:12;95999.00;;;14.60
14851;BMP180;7517;48.400;11.770;2023-11-21T11:44:51;96003.00;;;14.60
14851;BMP180;7517;48.400;11.770;2023-11-21T11:47:23;96002.00;;;14.60
14851;BMP180;7517;48.400;11.770;2023-11-21T11:50:05;95991.00;;;14.60
14851;BMP180;7517;48.400;11.770;2023-11-21T11:52:41;96001.00;;;14.60
14851;BMP180;7517;48.400;11.770;2023-11-21T11:55:12;95995.00;;;14.60
14851;BMP180;7517;48.400;11.770;2023-11-21T11:57:42;95990.00;;;14.60
14851;BMP180;7517;48.400;11.770;2023-11-21T12:00:17;95991.00;;;14.60
14851;BMP180;7517;48.400;11.770;2023-11-21T12:02:53;95988.00;;;14.60
14851;BMP180;7517;48.400;11.770;2023-11-21T12:05:21;95985.00;;;14.60
14851;BMP180;7517;48.400;11.770;2023-11-21T12:07:51;95992.00;;;14.60
14851;BMP180;7517;48.400;11.770;2023-11-21T12:10:23;95984.00;;;14.60
14851;BMP180;7517;48.400;11.770;2023-11-21T12:12:53;95994.00;;;14.60
14851;BMP180;7517;48.400;11.770;2023-11-21T12:15:20;95990.00;;;14.60
14851;BMP180;7517;48.400;11.770;2023-11-21T12:17:49;95988.00;;;14.60
14851;BMP180;7517;48.400;11.770;2023-11-21T12:20:19;95997.00;;;14.60
14851;BMP180;7517;48.400;11.770;2023-11-21T12:22:49;95987.00;;;14.60
14851;BMP180;7517;48.400;11.770;2023-11-21T12:25:18;95990.00;;;14.60
14851;BMP180;7517;48.400;11.770;2023-11-21T12:27:48;95993.00;;;14.60
14851;BMP180;7517;48.400;11.770;2023-11-21T12:30:18;95996.00;;;14.60
14851;BMP180;7517;48.400;11.770;2023-11-21T12:32:50;95993.00;;;14.60
14851;BMP180;7517;48.400;11.770;2023-11-21T12:35:19;95996.00;;;14.50
14851;BMP180;7517;48.400;11.770;2023-11-21T12:37:48;96001.00;;;14.50
14851;BMP180;7517;48.400;11.770;2023-11-21T12:40:16;96005.00;;;14.50
14851;BMP180;7517;48.400;11.770;2023-11-21T12:42:47;96003.00;;;14.40
14851;BMP180;7517;48.400;11.770;2023-11-21T12:45:23;96001.00;;;14.40
14851;BMP180;7517;48.400;11.770;2023-11-21T12:47:55;96000.00;;;14.30
14851;BMP180;7517;48.400;11.770;2023-11-21T12:50:27;95998.00;;;14.30
14851;BMP180;7517;48.400;11.770;2023-11-21T12:53:00;95998.00;;;14.30
14851;BMP180;7517;48.400;11.770;2023-11-21T12:55:32;96009.00;;;14.30
14851;BMP180;7517;48.400;11.770;2023-11-21T12:58:04;96007.00;;;14.30
14851;BMP180;7517;48.400;11.770;2023-11-21T13:00:36;96005.00;;;14.20
14851;BMP180;7517;48.400;11.770;2023-11-21T13:03:06;95999.00;;;14.20
14851;BMP180;7517;48.400;11.770;2023-11-21T13:05:36;96006.00;;;14.10
14851;BMP180;7517;48.400;11.770;2023-11-21T13:08:07;96018.00;;;14.20
14851;BMP180;7517;48.400;11.770;2023-11-21T13:10:36;96013.00;;;14.10
14851;BMP180;7517;48.400;11.770;2023-11-21T13:13:07;96015.00;;;14.10
14851;BMP180;7517;48.400;11.770;2023-11-21T13:15:39;96018.00;;;14.10
14851;BMP180;7517;48.400;11.770;2023-11-21T13:18:07;96015.00;;;14.10
14851;BMP180;7517;48.400;11.770;2023-11-21T13:20:37;96020.00;;;14.00
14851;BMP180;7517;48.400;11.770;2023-11-21T13:23:09;96020.00;;;14.00
14851;BMP180;7517;48.400;11.770;2023-11-21T13:25:38;96022.00;;;13.90
14851;BMP180;7517;48.400;11.770;2023-11-21T13:28:09;96024.00;;;13.90
14851;BMP180;7517;48.400;11.770;2023-11-21T13:30:36;96021.00;;;13.90
14851;BMP180;7517;48.400;11.770;2023-11-21T13:33:07;96019.00;;;13.80
14851;BMP180;7517;48.400;11.770;2023-11-21T13:35:37;96027.00;;;13.80
14851;BMP180;7517;48.400;11.770;2023-11-21T13:38:10;96029.00;;;13.80
14851;BMP180;7517;48.400;11.770;2023-11-21T13:40:39;96026.00;;;13.80
14851;BMP180;7517;48.400;11.770;2023-11-21T13:43:11;96026.00;;;13.80
14851;BMP180;7517;48.400;11.770;2023-11-21T13:45:40;96037.00;;;13.80
14851;BMP180;7517;48.400;11.770;2023-11-21T13:48:09;96039.00;;;13.80
14851;BMP180;7517;48.400;11.770;2023-11-21T13:50:37;96040.00;;;13.80
14851;BMP180;7517;48.400;11.770;2023-11-21T13:53:08;96044.00;;;13.80
14851;BMP180;7517;48.400;11.770;2023-11-21T13:55:45;96041.00;;;13.80
14851;BMP180;7517;48.400;11.770;2023-11-21T13:58:15;96045.00;;;13.80
14851;BMP180;7517;48.400;11.770;2023-11-21T14:00:46;96048.00;;;13.70
14851;BMP180;7517;48.400;11.770;2023-11-21T14:03:21;96048.00;;;13.70
14851;BMP180;7517;48.400;11.770;2023-11-21T14:05:51;96054.00;;;13.70
14851;BMP180;7517;48.400;11.770;2023-11-21T14:08:19;96058.00;;;13.70
14851;BMP180;7517;48.400;11.770;2023-11-21T14:10:47;96059.00;;;13.70
14851;BMP180;7517;48.400;11.770;2023-11-21T14:13:22;96056.00;;;13.70
14851;BMP180;7517;48.400;11.770;2023-11-21T14:15:50;96058.00;;;13.70
14851;BMP180;7517;48.400;11.770;2023-11-21T14:18:28;96064.00;;;13.60